Time;durP1;ratioP1;P1;durP2;ratioP2;P2;SDS_P1;SDS_P2;PMS_P1;PMS_P2;Temp;Humidity;BMP_temperature;BMP_pressure;BME280_temperature;BME280_humidity;BME280_pressure;Samples;Min_cycle;Max_cycle;Signal;HPM_P1;HPM_P2
2021/03/17 00:00:01;;;;;;;6.60;5.50;;;21.40;38.10;;;;;;5076225;28;20028;-71
2021/03/17 00:02:32;;;;;;;7.78;6.20;;;21.40;38.20;;;;;;5075166;28;20164;-72
2021/03/17 00:04:58;;;;;;;9.23;7.07;;;21.40;38.20;;;;;;5062983;28;20035;-71
2021/03/17 00:07:23;;;;;;;7.53;5.65;;;21.40;38.20;;;;;;5076663;28;20020;-71
2021/03/17 00:09:49;;;;;;;8.82;7.20;;;21.40;38.20;;;;;;5081634;28;20024;-71
2021/03/17 00:12:14;;;;;;;9.48;7.00;;;21.40;38.10;;;;;;5093790;28;20499;-72
2021/03/17 00:14:40;;;;;;;8.57;6.30;;;21.40;38.20;;;;;;5093094;28;20453;-72
2021/03/17 00:17:05;;;;;;;5.75;2.88;;;21.40;38.20;;;;;;5084708;28;20024;-71
2021/03/17 00:19:31;;;;;;;6.55;3.85;;;21.40;38.10;;;;;;5094160;28;20051;-71
2021/03/17 00:21:57;;;;;;;12.30;5.53;;;21.40;38.10;;;;;;5093164;28;20078;-71
2021/03/17 00:24:22;;;;;;;4.18;3.17;;;21.30;38.20;;;;;;5084405;28;20106;-72
2021/03/17 00:26:48;;;;;;;3.15;2.45;;;21.30;38.10;;;;;;5057952;28;20040;-72
2021/03/17 00:29:14;;;;;;;2.50;0.77;;;21.30;38.10;;;;;;5076283;28;20027;-72
2021/03/17 00:31:39;;;;;;;2.45;1.52;;;21.30;38.10;;;;;;5074993;28;20560;-72
2021/03/17 00:34:05;;;;;;;1.67;1.40;;;21.30;38.00;;;;;;5100181;28;20106;-72
2021/03/17 00:36:30;;;;;;;4.07;2.90;;;21.30;38.10;;;;;;5078627;28;20470;-72
2021/03/17 00:38:56;;;;;;;6.05;4.18;;;21.30;38.00;;;;;;5075001;28;20036;-72
2021/03/17 00:41:21;;;;;;;2.90;1.98;;;21.20;38.10;;;;;;5093277;28;20492;-72
2021/03/17 00:43:47;;;;;;;10.00;6.15;;;21.20;38.00;;;;;;5093188;28;20059;-72
2021/03/17 00:46:12;;;;;;;8.95;6.40;;;21.20;38.00;;;;;;5093089;28;20085;-72
2021/03/17 00:48:38;;;;;;;9.98;6.78;;;21.20;38.10;;;;;;5079478;28;20023;-72
2021/03/17 00:51:04;;;;;;;4.00;2.53;;;21.20;38.10;;;;;;5095215;28;20505;-72
2021/03/17 00:53:29;;;;;;;5.22;3.53;;;21.20;38.30;;;;;;5097238;28;20038;-71
2021/03/17 00:55:55;;;;;;;10.70;7.60;;;21.20;38.30;;;;;;5075188;28;20039;-72
2021/03/17 00:58:20;;;;;;;4.25;3.13;;;21.20;38.30;;;;;;5093379;28;20038;-72
2021/03/17 01:00:46;;;;;;;6.30;4.35;;;21.10;38.20;;;;;;5092486;28;20107;-72
2021/03/17 01:03:12;;;;;;;0.63;0.52;;;21.10;38.20;;;;;;5092734;28;20411;-72
2021/03/17 01:05:37;;;;;;;6.60;4.20;;;21.10;38.30;;;;;;5074573;28;20036;-72
2021/03/17 01:08:03;;;;;;;11.20;8.05;;;21.10;38.20;;;;;;5094710;28;20020;-72
2021/03/17 01:10:33;;;;;;;4.93;2.75;;;21.10;38.20;;;;;;5076844;28;20087;-72
2021/03/17 01:12:59;;;;;;;11.93;6.75;;;21.10;38.30;;;;;;5063563;28;20476;-72
2021/03/17 01:15:24;;;;;;;15.70;8.23;;;21.10;38.40;;;;;;5050981;28;20174;-71
2021/03/17 01:17:50;;;;;;;10.18;6.25;;;21.00;39.00;;;;;;5105225;28;20028;-72
2021/03/17 01:20:16;;;;;;;12.48;8.35;;;21.00;38.30;;;;;;5074487;28;20024;-71
2021/03/17 01:22:45;;;;;;;11.95;7.75;;;21.00;38.40;;;;;;5075189;28;20032;-72
2021/03/17 01:25:16;;;;;;;11.60;7.65;;;21.10;38.40;;;;;;5089356;28;20039;-72
2021/03/17 01:27:42;;;;;;;12.25;8.35;;;21.10;38.40;;;;;;5077634;28;20024;-72
2021/03/17 01:30:08;;;;;;;12.95;8.20;;;21.00;38.40;;;;;;5078320;28;20408;-72
2021/03/17 01:32:34;;;;;;;13.05;8.57;;;21.10;38.30;;;;;;5074016;28;20021;-72
2021/03/17 01:35:00;;;;;;;12.02;7.97;;;21.10;38.40;;;;;;5039980;28;20101;-72
2021/03/17 01:37:25;;;;;;;7.43;3.90;;;21.00;38.30;;;;;;5057259;28;20089;-72
2021/03/17 01:39:51;;;;;;;4.65;2.95;;;21.00;38.30;;;;;;5092454;28;20499;-72
2021/03/17 01:42:16;;;;;;;7.50;5.18;;;21.00;38.20;;;;;;5092685;28;20024;-72
2021/03/17 01:44:42;;;;;;;10.38;6.97;;;21.00;38.20;;;;;;5074396;28;20460;-72
2021/03/17 01:47:07;;;;;;;11.88;8.20;;;21.00;38.20;;;;;;5073618;28;20055;-73
2021/03/17 01:49:39;;;;;;;11.07;6.93;;;21.00;38.10;;;;;;5073795;28;20060;-73
2021/03/17 01:52:08;;;;;;;8.52;5.53;;;21.00;38.10;;;;;;5092737;28;20024;-72
2021/03/17 01:54:33;;;;;;;13.75;8.70;;;21.00;38.20;;;;;;5057554;28;20036;-73
2021/03/17 01:56:59;;;;;;;9.80;5.90;;;21.00;38.20;;;;;;5093133;28;20031;-73
2021/03/17 01:59:24;;;;;;;7.55;3.78;;;21.00;38.10;;;;;;5073787;28;20403;-73
2021/03/17 02:01:50;;;;;;;13.48;9.05;;;21.00;38.00;;;;;;5040410;28;20036;-75
2021/03/17 02:04:16;;;;;;;11.43;6.95;;;21.00;38.10;;;;;;5073753;28;20028;-76
2021/03/17 02:06:41;;;;;;;11.45;7.75;;;21.00;38.10;;;;;;5074276;28;20028;-76
2021/03/17 02:09:07;;;;;;;4.25;2.58;;;20.90;38.10;;;;;;5084082;28;20040;-76
2021/03/17 02:11:32;;;;;;;11.68;7.57;;;20.90;38.10;;;;;;5071138;28;20021;-76
2021/03/17 02:14:36;;;;;;;2.88;1.60;;;21.00;38.10;;;;;;5080986;28;20029;-76
2021/03/17 02:17:04;;;;;;;7.43;3.92;;;20.90;38.10;;;;;;5060237;28;20039;-77
2021/03/17 02:19:51;;;;;;;16.73;10.95;;;20.90;38.10;;;;;;5054634;28;20031;-76
2021/03/17 02:22:48;;;;;;;2.45;1.77;;;20.90;38.10;;;;;;5085689;28;20541;-76
2021/03/17 02:25:57;;;;;;;14.25;8.25;;;20.90;38.10;;;;;;5086470;28;20070;-77
2021/03/17 02:28:22;;;;;;;5.72;3.58;;;20.90;38.00;;;;;;5070935;28;20020;-78
2021/03/17 02:30:57;;;;;;;11.48;5.57;;;20.90;38.10;;;;;;5075748;28;20069;-78
2021/03/17 02:33:33;;;;;;;9.05;5.53;;;20.90;38.00;;;;;;5095363;28;20028;-78
2021/03/17 02:36:13;;;;;;;17.40;11.70;;;20.80;38.00;;;;;;5061250;28;20039;-78
2021/03/17 02:38:39;;;;;;;3.50;1.83;;;20.80;38.20;;;;;;5079402;28;20032;-77
2021/03/17 02:41:05;;;;;;;17.85;11.55;;;20.80;38.20;;;;;;5061352;28;20505;-78
2021/03/17 02:43:32;;;;;;;18.67;12.00;;;20.80;38.20;;;;;;5060397;28;20051;-78
2021/03/17 02:46:07;;;;;;;12.40;7.38;;;20.80;38.30;;;;;;5077426;28;20028;-78
2021/03/17 02:48:39;;;;;;;14.90;9.20;;;20.80;38.20;;;;;;5063330;28;20020;-78
2021/03/17 02:51:06;;;;;;;19.35;12.07;;;20.80;38.10;;;;;;5066588;28;20058;-78
2021/03/17 02:53:33;;;;;;;16.10;10.68;;;20.70;38.50;;;;;;5060787;28;20047;-78
2021/03/17 02:56:01;;;;;;;12.55;5.40;;;20.70;38.80;;;;;;5077673;28;20051;-78
2021/03/17 02:58:27;;;;;;;17.85;11.05;;;20.70;38.20;;;;;;5076582;28;20027;-79
2021/03/17 03:00:53;;;;;;;13.20;7.30;;;20.70;38.30;;;;;;5043386;28;20028;-79
2021/03/17 03:03:19;;;;;;;12.50;8.10;;;20.70;38.10;;;;;;5040808;28;20123;-78
2021/03/17 03:05:44;;;;;;;13.13;8.65;;;20.70;38.20;;;;;;5077295;28;20042;-78
2021/03/17 03:08:10;;;;;;;11.32;8.15;;;20.70;38.20;;;;;;5091400;28;20040;-78
2021/03/17 03:10:36;;;;;;;10.20;6.40;;;20.70;38.20;;;;;;5091014;28;20043;-78
2021/03/17 03:13:01;;;;;;;12.00;9.35;;;20.70;38.20;;;;;;5096438;28;20035;-78
2021/03/17 03:15:28;;;;;;;11.18;7.28;;;20.70;38.20;;;;;;5076558;28;20028;-79
2021/03/17 03:17:57;;;;;;;12.52;7.30;;;20.70;38.30;;;;;;5076224;28;20407;-78
2021/03/17 03:20:24;;;;;;;10.85;8.00;;;20.70;38.20;;;;;;5060096;28;20024;-78
2021/03/17 03:22:50;;;;;;;7.82;5.28;;;20.70;38.80;;;;;;5076842;28;20027;-78
2021/03/17 03:25:15;;;;;;;11.27;8.32;;;20.70;38.30;;;;;;5059727;28;20030;-76
2021/03/17 03:27:47;;;;;;;11.20;7.82;;;20.70;38.20;;;;;;5094431;28;20081;-77
2021/03/17 03:30:16;;;;;;;11.65;9.05;;;20.70;38.90;;;;;;5055928;28;20033;-76
2021/03/17 03:32:42;;;;;;;13.07;8.90;;;20.70;38.20;;;;;;5056805;28;20047;-76
2021/03/17 03:35:12;;;;;;;11.07;7.72;;;20.60;38.20;;;;;;5094451;28;20042;-76
2021/03/17 03:37:38;;;;;;;10.48;7.63;;;20.60;38.20;;;;;;5077462;28;20392;-77
2021/03/17 03:40:24;;;;;;;11.07;7.78;;;20.60;38.20;;;;;;5075977;28;20051;-76
2021/03/17 03:42:49;;;;;;;8.73;6.07;;;20.60;38.10;;;;;;5093207;28;20051;-77
2021/03/17 03:45:16;;;;;;;10.32;7.97;;;20.60;38.20;;;;;;5076119;28;20028;-77
2021/03/17 03:47:42;;;;;;;12.52;8.68;;;20.60;38.10;;;;;;5083674;28;20024;-77
2021/03/17 03:50:09;;;;;;;12.35;7.47;;;20.60;38.10;;;;;;5094853;28;20369;-78
2021/03/17 03:53:18;;;;;;;6.88;3.90;;;20.60;38.10;;;;;;5059073;28;20024;-77
2021/03/17 03:56:05;;;;;;;9.35;6.00;;;20.60;38.00;;;;;;5004546;28;20619;-79
2021/03/17 03:58:42;;;;;;;13.30;8.65;;;20.60;38.20;;;;;;4989436;28;20046;-79
2021/03/17 04:01:12;;;;;;;10.95;7.18;;;20.60;38.20;;;;;;5004952;28;20109;-77
2021/03/17 04:03:42;;;;;;;11.02;8.25;;;20.60;38.10;;;;;;4981844;28;20034;-76
2021/03/17 04:06:12;;;;;;;11.45;8.85;;;20.60;38.20;;;;;;4972465;28;20035;-77
2021/03/17 04:08:42;;;;;;;13.35;7.50;;;20.60;38.30;;;;;;4981611;28;20030;-76
2021/03/17 04:11:08;;;;;;;12.43;8.85;;;20.50;39.00;;;;;;4987640;28;20026;-76
2021/03/17 04:13:33;;;;;;;12.05;9.25;;;20.50;38.20;;;;;;4979484;28;20050;-76
2021/03/17 04:15:59;;;;;;;13.35;9.25;;;20.50;38.30;;;;;;4959882;28;20466;-75
2021/03/17 04:18:27;;;;;;;12.98;9.60;;;20.50;38.30;;;;;;4971375;28;20080;-76
2021/03/17 04:20:53;;;;;;;13.27;9.57;;;20.50;38.20;;;;;;4976509;28;20034;-76
2021/03/17 04:23:20;;;;;;;7.90;5.47;;;20.50;38.20;;;;;;4976696;28;20044;-76
2021/03/17 04:25:47;;;;;;;13.80;10.23;;;20.50;38.30;;;;;;4960544;28;20093;-76
2021/03/17 04:28:18;;;;;;;14.65;11.00;;;20.50;38.20;;;;;;4984569;28;20038;-76
2021/03/17 04:30:44;;;;;;;12.50;9.82;;;20.50;38.30;;;;;;4994519;28;20018;-76
2021/03/17 04:33:10;;;;;;;12.00;8.65;;;20.50;38.30;;;;;;5046148;28;20039;-75
2021/03/17 04:35:35;;;;;;;13.48;9.50;;;20.50;38.30;;;;;;5075018;28;20379;-76
2021/03/17 04:38:01;;;;;;;11.60;8.55;;;20.40;38.90;;;;;;5058235;28;20055;-76
2021/03/17 04:40:27;;;;;;;15.70;11.35;;;20.50;38.30;;;;;;5085747;28;20031;-76
2021/03/17 04:42:56;;;;;;;14.52;10.20;;;20.40;38.20;;;;;;5063775;28;20519;-76
2021/03/17 04:45:22;;;;;;;15.80;10.75;;;20.50;38.30;;;;;;5072937;28;20016;-76
2021/03/17 04:47:47;;;;;;;13.90;10.10;;;20.40;38.20;;;;;;5068474;28;20036;-76
2021/03/17 04:50:19;;;;;;;13.75;9.98;;;20.40;38.20;;;;;;5074938;28;20495;-76
2021/03/17 04:52:45;;;;;;;15.32;10.45;;;20.40;38.30;;;;;;5075134;28;20593;-76
2021/03/17 04:55:13;;;;;;;17.25;11.48;;;20.40;38.30;;;;;;5088237;28;20064;-75
2021/03/17 04:57:39;;;;;;;16.02;9.75;;;20.40;38.20;;;;;;5074980;28;20566;-76
2021/03/17 05:00:15;;;;;;;16.58;11.63;;;20.40;38.20;;;;;;5057849;28;20103;-76
2021/03/17 05:02:45;;;;;;;0.25;0.25;;;20.40;38.10;;;;;;5063422;28;20093;-76
2021/03/17 05:05:10;;;;;;;0.28;0.10;;;20.40;38.10;;;;;;5061840;28;20024;-76
2021/03/17 05:07:39;;;;;;;0.13;0.13;;;20.40;38.10;;;;;;5073603;28;20111;-76
2021/03/17 05:10:07;;;;;;;0.85;0.57;;;20.50;38.00;;;;;;5038264;28;20032;-74
2021/03/17 05:12:33;;;;;;;0.30;0.30;;;20.60;37.80;;;;;;5059952;28;20024;-75
2021/03/17 05:14:59;;;;;;;0.10;0.10;;;20.70;37.70;;;;;;5053497;28;20040;-76
2021/03/17 05:17:24;;;;;;;0.30;0.30;;;20.80;37.50;;;;;;5074234;28;20075;-76
2021/03/17 05:19:50;;;;;;;0.28;0.28;;;20.90;37.40;;;;;;5074507;28;20099;-76
2021/03/17 05:22:15;;;;;;;0.98;0.43;;;21.00;37.90;;;;;;5057791;28;20086;-75
2021/03/17 05:24:41;;;;;;;0.55;0.20;;;21.10;37.10;;;;;;5075007;28;20107;-74
2021/03/17 05:27:15;;;;;;;0.38;0.38;;;21.20;36.90;;;;;;5074683;28;20024;-75
2021/03/17 05:29:41;;;;;;;0.40;0.30;;;21.20;36.70;;;;;;5060429;28;20032;-74
2021/03/17 05:32:07;;;;;;;0.63;0.47;;;21.30;36.50;;;;;;5074090;28;20031;-74
2021/03/17 05:34:35;;;;;;;0.28;0.28;;;21.40;36.50;;;;;;5056876;28;20438;-74
2021/03/17 05:37:01;;;;;;;0.63;0.35;;;21.50;36.30;;;;;;5074686;28;20055;-74
2021/03/17 05:39:27;;;;;;;0.17;0.10;;;21.50;36.20;;;;;;5074656;28;20032;-74
2021/03/17 05:41:52;;;;;;;0.50;0.50;;;21.60;36.10;;;;;;5092432;28;20081;-74
2021/03/17 05:44:18;;;;;;;0.35;0.35;;;21.60;36.00;;;;;;5091968;28;20020;-74
2021/03/17 05:46:44;;;;;;;0.90;0.50;;;21.60;36.50;;;;;;5057727;28;20116;-75
2021/03/17 05:49:09;;;;;;;0.68;0.20;;;21.70;35.90;;;;;;5073635;28;20020;-75
2021/03/17 05:51:35;;;;;;;0.17;0.17;;;21.70;35.80;;;;;;5061740;28;20511;-75
2021/03/17 05:54:00;;;;;;;0.35;0.35;;;21.80;35.70;;;;;;5074776;28;20027;-75
2021/03/17 05:56:26;;;;;;;1.02;0.20;;;21.80;35.60;;;;;;5069155;28;20032;-75
2021/03/17 05:58:54;;;;;;;0.47;0.28;;;21.90;35.60;;;;;;5073083;28;20036;-75
2021/03/17 06:01:20;;;;;;;0.30;0.20;;;21.90;35.50;;;;;;5057392;28;20035;-75
2021/03/17 06:03:45;;;;;;;1.10;0.45;;;22.00;35.40;;;;;;5073944;28;20024;-75
2021/03/17 06:06:11;;;;;;;0.13;0.10;;;22.00;35.40;;;;;;5059114;28;20028;-74
2021/03/17 06:08:44;;;;;;;0.32;0.32;;;22.10;35.40;;;;;;5077272;28;20035;-75
2021/03/17 06:11:11;;;;;;;0.47;0.30;;;22.10;35.30;;;;;;5059883;28;20111;-75
2021/03/17 06:13:39;;;;;;;0.20;0.20;;;22.10;35.20;;;;;;5058491;28;20028;-75
2021/03/17 06:16:05;;;;;;;0.47;0.25;;;22.20;35.20;;;;;;5060553;28;20745;-76
2021/03/17 06:18:41;;;;;;;0.20;0.20;;;22.20;35.10;;;;;;5060709;28;20055;-74
2021/03/17 06:21:06;;;;;;;0.55;0.43;;;22.20;35.10;;;;;;5068564;28;20071;-76
2021/03/17 06:23:32;;;;;;;1.75;0.22;;;22.20;35.20;;;;;;5076826;28;20060;-74
2021/03/17 06:25:58;;;;;;;0.90;0.20;;;22.20;35.20;;;;;;5076910;28;20077;-74
2021/03/17 06:28:24;;;;;;;0.20;0.20;;;22.20;35.20;;;;;;5100110;28;20016;-74
2021/03/17 06:30:52;;;;;;;0.30;0.30;;;22.20;35.10;;;;;;5095987;28;20035;-74
2021/03/17 06:33:18;;;;;;;0.10;0.10;;;22.30;35.10;;;;;;5076834;28;20020;-75
2021/03/17 06:35:43;;;;;;;0.32;0.30;;;22.30;35.10;;;;;;5093835;28;20107;-75
2021/03/17 06:38:23;;;;;;;0.10;0.10;;;22.20;35.10;;;;;;5064620;28;20045;-77
2021/03/17 06:40:56;;;;;;;0.20;0.20;;;22.30;35.20;;;;;;5056836;28;20028;-77
2021/03/17 06:43:22;;;;;;;0.38;0.13;;;22.30;35.90;;;;;;5056988;28;20041;-76
2021/03/17 06:45:47;;;;;;;0.85;0.43;;;22.30;35.20;;;;;;5062640;28;20051;-75
2021/03/17 06:48:22;;;;;;;0.20;0.20;;;22.30;35.20;;;;;;5058614;28;20020;-75
2021/03/17 06:51:12;;;;;;;0.45;0.25;;;22.30;35.20;;;;;;5074641;28;20025;-74
2021/03/17 06:53:53;;;;;;;0.10;0.10;;;22.30;35.30;;;;;;5075668;28;20103;-75
2021/03/17 06:56:26;;;;;;;0.20;0.20;;;22.30;35.30;;;;;;5049874;28;20036;-75
2021/03/17 06:58:54;;;;;;;0.77;0.30;;;22.30;35.30;;;;;;5074080;28;20480;-77
2021/03/17 07:01:26;;;;;;;0.10;0.10;;;22.30;35.30;;;;;;5058285;28;20027;-77
2021/03/17 07:03:59;;;;;;;0.10;0.10;;;22.30;35.90;;;;;;5074095;28;20027;-77
2021/03/17 07:06:25;;;;;;;0.75;0.60;;;22.30;35.30;;;;;;5051175;28;20094;-78
2021/03/17 07:08:50;;;;;;;0.35;0.25;;;22.40;35.40;;;;;;5057046;28;20028;-77
2021/03/17 07:11:24;;;;;;;0.63;0.35;;;22.40;35.30;;;;;;5042762;28;20426;-77
2021/03/17 07:13:57;;;;;;;0.30;0.00;;;22.40;35.30;;;;;;5035402;28;20183;-77
2021/03/17 07:16:46;;;;;;;0.30;0.30;;;22.40;35.20;;;;;;5066175;28;20079;-77
2021/03/17 07:19:12;;;;;;;0.20;0.20;;;22.40;35.10;;;;;;5073271;28;20052;-77
2021/03/17 07:21:39;;;;;;;0.20;0.20;;;22.40;35.10;;;;;;5040056;28;20072;-81
2021/03/17 07:24:14;;;;;;;1.25;0.38;;;22.50;35.20;;;;;;5074329;28;20458;-78
2021/03/17 07:26:39;;;;;;;0.22;0.20;;;22.40;35.10;;;;;;5041120;28;20039;-75
2021/03/17 07:29:13;;;;;;;0.10;0.10;;;22.40;35.10;;;;;;5074154;28;20032;-74
2021/03/17 07:31:39;;;;;;;0.80;0.20;;;22.40;35.00;;;;;;5074147;28;20016;-78
2021/03/17 07:34:12;;;;;;;0.20;0.20;;;22.50;35.10;;;;;;5035402;28;20029;-72
2021/03/17 07:36:57;;;;;;;0.28;0.28;;;22.40;35.10;;;;;;5067275;28;20080;-73
2021/03/17 07:39:26;;;;;;;0.70;0.35;;;22.50;35.10;;;;;;5055976;28;20055;-72
2021/03/17 07:41:53;;;;;;;0.10;0.05;;;22.40;35.10;;;;;;5057041;28;20090;-78
2021/03/17 07:44:19;;;;;;;0.38;0.20;;;22.40;35.10;;;;;;5055767;28;20029;-78
2021/03/17 07:50:07;;;;;;;0.20;0.20;;;22.40;35.20;;;;;;5071564;28;20108;-72
2021/03/17 07:52:33;;;;;;;0.17;0.10;;;22.40;35.20;;;;;;5051004;28;20115;-72
2021/03/17 07:55:05;;;;;;;0.57;0.35;;;22.40;35.30;;;;;;5041217;28;20037;-72
2021/03/17 07:57:30;;;;;;;0.10;0.10;;;22.40;35.30;;;;;;5066842;28;20075;-72
2021/03/17 07:59:56;;;;;;;0.13;0.10;;;22.40;35.30;;;;;;5036110;28;20029;-72
2021/03/17 08:02:22;;;;;;;0.20;0.20;;;22.40;35.30;;;;;;5033067;28;20488;-71
2021/03/17 08:04:47;;;;;;;0.38;0.13;;;22.40;35.30;;;;;;5072904;28;20028;-72
2021/03/17 08:07:19;;;;;;;0.28;0.15;;;22.40;35.40;;;;;;5054371;28;20514;-72
2021/03/17 08:09:45;;;;;;;0.10;0.10;;;22.30;35.30;;;;;;5055341;28;20023;-72
2021/03/17 08:12:11;;;;;;;0.43;0.10;;;22.40;35.40;;;;;;5067179;28;20024;-72
2021/03/17 08:14:38;;;;;;;0.70;0.47;;;22.30;35.40;;;;;;5054872;28;20489;-72
2021/03/17 08:17:04;;;;;;;1.00;0.15;;;22.30;35.40;;;;;;5054241;28;20076;-72
2021/03/17 08:19:30;;;;;;;0.80;0.28;;;22.30;35.40;;;;;;5016741;28;20409;-77
2021/03/17 08:22:00;;;;;;;0.10;0.10;;;22.30;35.40;;;;;;5055487;28;20025;-77
2021/03/17 08:24:38;;;;;;;0.50;0.30;;;22.30;35.40;;;;;;5072332;28;20020;-77
2021/03/17 08:27:07;;;;;;;0.40;0.22;;;22.30;35.50;;;;;;5054391;28;20565;-77
2021/03/17 08:30:01;;;;;;;0.10;0.10;;;22.30;35.60;;;;;;5070335;28;20043;-77
2021/03/17 08:32:28;;;;;;;1.33;0.40;;;22.20;35.50;;;;;;5055179;28;20032;-77
2021/03/17 08:35:03;;;;;;;0.30;0.20;;;22.20;35.60;;;;;;5037524;28;20052;-78
2021/03/17 08:37:50;;;;;;;0.43;0.30;;;22.20;35.60;;;;;;5067503;28;20071;-78
2021/03/17 08:40:28;;;;;;;0.35;0.25;;;22.10;35.60;;;;;;5078879;28;20056;-72
2021/03/17 08:42:54;;;;;;;0.30;0.20;;;22.10;35.70;;;;;;5092940;28;20024;-71
2021/03/17 08:45:43;;;;;;;0.63;0.30;;;22.10;35.70;;;;;;5058442;28;20058;-72
2021/03/17 08:48:08;;;;;;;0.60;0.43;;;22.10;35.80;;;;;;5074385;28;20111;-72
2021/03/17 08:50:34;;;;;;;0.20;0.20;;;22.00;35.70;;;;;;5092624;28;20107;-71
2021/03/17 08:53:00;;;;;;;1.65;0.70;;;22.00;35.80;;;;;;5072138;28;20395;-71
2021/03/17 08:55:36;;;;;;;0.30;0.30;;;22.00;35.80;;;;;;5075318;28;20026;-71
2021/03/17 08:58:06;;;;;;;0.15;0.15;;;22.00;35.90;;;;;;5056469;28;20051;-71
2021/03/17 09:00:51;;;;;;;0.35;0.20;;;22.00;35.90;;;;;;5076006;28;20416;-78
2021/03/17 09:03:39;;;;;;;0.13;0.03;;;22.00;35.90;;;;;;5072634;28;20085;-73
2021/03/17 09:06:10;;;;;;;0.82;0.40;;;22.00;36.00;;;;;;5073594;28;20100;-73
2021/03/17 09:09:02;;;;;;;1.23;0.47;;;21.90;35.90;;;;;;5091589;28;20028;-78
2021/03/17 09:11:30;;;;;;;0.70;0.38;;;21.90;36.00;;;;;;4991274;28;20042;-77
2021/03/17 09:14:00;;;;;;;1.52;0.50;;;21.90;36.00;;;;;;5009887;28;20038;-78
2021/03/17 09:16:26;;;;;;;2.38;0.38;;;21.90;35.90;;;;;;4993871;28;20134;-75
2021/03/17 09:19:07;;;;;;;0.30;0.28;;;21.90;36.00;;;;;;4992877;28;20030;-73
2021/03/17 09:21:33;;;;;;;0.32;0.28;;;21.90;36.00;;;;;;5009744;28;20041;-76
2021/03/17 09:23:58;;;;;;;1.50;0.40;;;21.90;36.00;;;;;;4993975;28;20037;-75
2021/03/17 09:26:27;;;;;;;0.43;0.40;;;21.90;36.00;;;;;;4993374;28;20083;-77
2021/03/17 09:28:53;;;;;;;0.55;0.30;;;21.80;36.00;;;;;;4976969;28;20026;-76
2021/03/17 09:31:18;;;;;;;2.70;0.90;;;21.80;36.00;;;;;;4993527;28;20497;-74
2021/03/17 09:33:44;;;;;;;0.22;0.22;;;21.80;36.00;;;;;;5009930;28;20059;-73
2021/03/17 09:36:11;;;;;;;0.40;0.20;;;21.80;36.10;;;;;;4991038;28;20046;-74
2021/03/17 09:38:41;;;;;;;0.32;0.30;;;21.80;36.20;;;;;;4988088;28;20133;-74
2021/03/17 09:41:09;;;;;;;1.70;0.60;;;21.80;36.20;;;;;;4993672;28;20454;-75
2021/03/17 09:43:40;;;;;;;0.05;0.05;;;21.80;36.20;;;;;;4994122;28;20030;-72
2021/03/17 09:46:28;;;;;;;0.20;0.10;;;21.80;36.20;;;;;;4985097;28;20105;-76
2021/03/17 09:48:57;;;;;;;0.00;0.00;;;21.70;36.10;;;;;;5048973;28;20109;-76
2021/03/17 09:51:24;;;;;;;0.10;0.08;;;21.70;36.30;;;;;;5077435;28;20409;-76
2021/03/17 09:53:51;;;;;;;0.30;0.30;;;21.80;37.00;;;;;;5053121;28;20017;-76
2021/03/17 09:56:17;;;;;;;0.43;0.38;;;21.70;36.30;;;;;;5040931;28;20131;-77
2021/03/17 09:58:42;;;;;;;0.30;0.30;;;21.70;36.40;;;;;;5060191;28;20180;-76
2021/03/17 10:01:12;;;;;;;0.68;0.40;;;21.70;36.30;;;;;;5040604;28;20052;-77
2021/03/17 10:03:54;;;;;;;0.20;0.20;;;21.70;37.00;;;;;;5063784;28;20025;-72
2021/03/17 10:06:20;;;;;;;0.43;0.35;;;21.70;36.40;;;;;;5054070;28;20028;-72
2021/03/17 10:08:54;;;;;;;0.30;0.30;;;21.70;36.40;;;;;;5080038;28;20399;-72
2021/03/17 10:11:19;;;;;;;0.45;0.28;;;21.70;36.30;;;;;;5061554;28;20029;-72
2021/03/17 10:13:47;;;;;;;1.00;0.28;;;21.70;36.40;;;;;;5039132;28;20511;-72
2021/03/17 10:16:12;;;;;;;0.30;0.30;;;21.70;36.40;;;;;;5057351;28;20047;-72
2021/03/17 10:19:15;;;;;;;0.85;0.30;;;21.60;36.30;;;;;;5060619;28;20020;-72
2021/03/17 10:21:41;;;;;;;0.28;0.20;;;21.60;36.30;;;;;;5081704;28;20515;-72
2021/03/17 10:24:08;;;;;;;0.20;0.20;;;21.60;36.40;;;;;;5088293;28;20025;-72
2021/03/17 10:26:35;;;;;;;0.30;0.20;;;21.60;36.40;;;;;;5072584;28;20475;-72
2021/03/17 10:29:03;;;;;;;0.30;0.20;;;21.60;37.00;;;;;;5057142;28;20388;-72
2021/03/17 10:31:32;;;;;;;0.68;0.30;;;21.60;36.40;;;;;;5056307;28;20091;-72
2021/03/17 10:33:58;;;;;;;0.13;0.13;;;21.60;36.40;;;;;;5076434;28;20020;-72
2021/03/17 10:36:24;;;;;;;1.67;0.63;;;21.60;36.40;;;;;;5062899;28;20040;-72
2021/03/17 10:38:51;;;;;;;0.28;0.28;;;21.60;36.30;;;;;;5075882;28;20036;-72
2021/03/17 10:41:43;;;;;;;0.65;0.25;;;21.60;36.40;;;;;;5076552;28;20443;-72
2021/03/17 10:44:19;;;;;;;1.60;0.30;;;21.60;36.40;;;;;;5073926;28;20023;-72
2021/03/17 10:47:15;;;;;;;0.47;0.20;;;21.60;36.40;;;;;;5072438;28;20059;-72
2021/03/17 10:49:49;;;;;;;0.20;0.17;;;21.60;36.40;;;;;;5019556;28;20432;-72
2021/03/17 10:52:14;;;;;;;0.52;0.20;;;21.60;37.00;;;;;;5045196;28;20036;-72
2021/03/17 10:54:41;;;;;;;0.70;0.20;;;21.60;36.40;;;;;;5036657;28;20471;-72
2021/03/17 10:57:07;;;;;;;0.15;0.15;;;21.50;36.30;;;;;;5009940;28;20112;-73
2021/03/17 10:59:39;;;;;;;0.93;0.40;;;21.50;36.50;;;;;;5030025;28;20191;-72
2021/03/17 11:02:30;;;;;;;0.20;0.20;;;21.50;37.00;;;;;;4999234;28;20112;-72
2021/03/17 11:05:15;;;;;;;0.70;0.05;;;21.50;36.40;;;;;;5038697;28;20018;-72
2021/03/17 11:08:25;;;;;;;0.50;0.20;;;21.50;36.40;;;;;;5012278;28;20048;-72
2021/03/17 11:10:55;;;;;;;0.45;0.20;;;21.50;36.40;;;;;;5009392;28;20380;-72
2021/03/17 11:13:21;;;;;;;0.95;0.20;;;21.50;36.40;;;;;;5034158;28;20080;-73
2021/03/17 11:15:54;;;;;;;0.30;0.28;;;21.50;36.40;;;;;;5027542;28;20025;-73
2021/03/17 11:18:32;;;;;;;0.13;0.10;;;21.50;36.40;;;;;;5030006;28;20104;-73
2021/03/17 11:21:04;;;;;;;1.13;0.35;;;21.50;36.50;;;;;;5030197;28;20160;-71
2021/03/17 11:23:38;;;;;;;5.40;0.85;;;21.60;38.40;;;;;;4997372;28;20025;-72
2021/03/17 11:26:06;;;;;;;1.45;0.43;;;21.60;37.10;;;;;;5035886;28;20068;-73
2021/03/17 11:28:38;;;;;;;3.92;0.90;;;21.60;37.30;;;;;;5088899;28;20074;-70
2021/03/17 11:31:05;;;;;;;7.85;1.30;;;21.70;38.00;;;;;;5070162;28;20024;-75
2021/03/17 11:33:31;;;;;;;8.02;1.80;;;21.80;38.00;;;;;;5094409;28;20029;-73
2021/03/17 11:35:57;;;;;;;6.63;1.35;;;21.90;37.50;;;;;;5094164;28;20039;-73
2021/03/17 11:38:23;;;;;;;0.55;0.50;;;21.90;36.90;;;;;;5059873;28;20115;-73
2021/03/17 11:40:49;;;;;;;1.30;1.08;;;21.80;37.20;;;;;;5075787;28;20126;-73
2021/03/17 11:43:20;;;;;;;1.98;0.73;;;21.80;36.40;;;;;;5094264;28;20066;-73
2021/03/17 11:45:45;;;;;;;2.75;0.60;;;21.80;36.40;;;;;;5075595;28;20028;-73
2021/03/17 11:48:24;;;;;;;1.63;0.77;;;21.70;36.30;;;;;;5075167;28;20103;-73
2021/03/17 11:50:51;;;;;;;3.25;0.73;;;21.70;36.20;;;;;;5072615;28;20078;-73
2021/03/17 11:53:17;;;;;;;1.38;0.52;;;21.70;36.20;;;;;;5075191;28;20032;-73
2021/03/17 11:55:49;;;;;;;1.00;0.50;;;21.70;36.20;;;;;;5058648;28;20164;-73
2021/03/17 11:58:15;;;;;;;2.65;0.80;;;21.70;36.30;;;;;;5075399;28;20503;-73
2021/03/17 12:00:44;;;;;;;1.27;0.70;;;21.60;36.20;;;;;;5057531;28;20031;-73
2021/03/17 12:03:11;;;;;;;1.58;0.73;;;21.60;36.20;;;;;;5075147;28;20500;-73
2021/03/17 12:05:37;;;;;;;0.40;0.15;;;21.50;36.10;;;;;;5074685;28;20032;-73
2021/03/17 12:08:03;;;;;;;1.10;0.45;;;21.50;36.20;;;;;;5075288;28;20521;-73
2021/03/17 12:13:50;;;;;;;1.88;0.82;;;21.50;36.20;;;;;;5092349;28;20031;-73
2021/03/17 12:16:16;;;;;;;0.80;0.43;;;21.50;36.30;;;;;;5074441;28;20024;-73
2021/03/17 12:18:44;;;;;;;1.40;0.50;;;21.50;36.20;;;;;;5092219;28;20517;-72
2021/03/17 12:21:09;;;;;;;1.70;0.45;;;21.50;36.20;;;;;;5065566;28;20044;-73
2021/03/17 12:23:36;;;;;;;0.95;0.50;;;21.50;36.20;;;;;;5074608;28;20040;-73
2021/03/17 12:26:01;;;;;;;0.55;0.30;;;21.50;36.10;;;;;;5084457;28;20071;-73
2021/03/17 12:28:27;;;;;;;1.95;0.30;;;21.50;36.10;;;;;;5056563;28;20067;-73
2021/03/17 12:30:52;;;;;;;0.50;0.20;;;21.50;36.10;;;;;;5093628;28;20036;-74
2021/03/17 12:33:18;;;;;;;0.32;0.10;;;21.50;36.10;;;;;;5074461;28;20085;-73
2021/03/17 12:35:44;;;;;;;0.30;0.20;;;21.50;36.00;;;;;;5074914;28;20044;-73
2021/03/17 12:38:09;;;;;;;0.60;0.20;;;21.50;36.00;;;;;;5058188;28;20127;-72
2021/03/17 12:40:35;;;;;;;1.13;0.30;;;21.50;36.10;;;;;;5058041;28;20040;-72
2021/03/17 12:43:00;;;;;;;0.63;0.10;;;21.40;36.00;;;;;;5092960;28;20461;-73
2021/03/17 12:46:16;;;;;;;0.32;0.30;;;21.40;36.00;;;;;;5091739;28;20032;-72
2021/03/17 12:52:04;;;;;;;0.20;0.20;;;21.40;36.20;;;;;;5093607;28;20031;-73
2021/03/17 12:54:30;;;;;;;0.52;0.35;;;21.40;36.20;;;;;;5092060;28;20020;-72
2021/03/17 12:56:55;;;;;;;0.30;0.30;;;21.30;36.20;;;;;;5091879;28;20558;-73
2021/03/17 12:59:21;;;;;;;0.15;0.15;;;21.30;36.30;;;;;;5053648;28;20044;-75
2021/03/17 13:01:46;;;;;;;3.20;0.30;;;21.40;36.50;;;;;;5096434;28;20387;-74
2021/03/17 13:04:12;;;;;;;0.20;0.13;;;21.40;36.90;;;;;;5090657;28;20024;-73